Atwood, Indiana
Current Conditions -  °F | °C
As of 11:15 AM on Friday 21 Nov 2014 (Local Time) from KASW Reporting Station
Clear Clear  
Wind Chill: -3°   Ceiling: Unl
Heat Index: -3°   Visibility: 10mi
Dew Point: -11°   Wind: 3mph
Humidity: 55%   Direction: 150°SSE
Pressure: 30.49"   Gusts: NA
Location:  41.26°N, 85.98°W
Report Text: KASW 211615Z AUTO 15003KT 10SM CLR M03/M11 A3049 RMK AO2
Loading
Personal Weather Stations






























Interactive Weather Map New forecast layout! Learn more

10-Day Weather Forecast

Advertisements
Track Severe Weather on mobile